createdAt,value
2017-09-04T00:01:26.385Z,8.60
2017-09-04T00:03:53.393Z,8.50
2017-09-04T00:06:20.446Z,8.20
2017-09-04T00:08:47.466Z,7.70
2017-09-04T00:11:14.495Z,7.70
2017-09-04T00:13:41.535Z,8.00
2017-09-04T00:16:08.549Z,8.10
2017-09-04T00:18:35.831Z,8.20
2017-09-04T00:21:02.838Z,8.20
2017-09-04T00:23:29.855Z,8.20
2017-09-04T00:25:56.914Z,8.30
2017-09-04T00:28:23.915Z,8.30
2017-09-04T00:30:50.958Z,8.30
2017-09-04T00:33:17.974Z,8.30
2017-09-04T00:35:45.006Z,8.20
2017-09-04T00:38:12.050Z,8.20
2017-09-04T00:40:39.087Z,8.20
2017-09-04T00:43:06.143Z,8.20
2017-09-04T00:45:33.914Z,8.20
2017-09-04T00:48:00.978Z,8.20
2017-09-04T00:50:28.027Z,8.10
2017-09-04T00:52:55.089Z,8.10
2017-09-04T00:55:22.342Z,8.10
2017-09-04T00:57:49.386Z,8.00
2017-09-04T01:00:16.404Z,8.00
2017-09-04T01:02:43.460Z,8.00
2017-09-04T01:05:10.474Z,8.00
2017-09-04T01:07:37.531Z,8.00
2017-09-04T01:10:04.550Z,7.90
2017-09-04T01:12:31.582Z,7.90
2017-09-04T01:14:58.641Z,7.90
2017-09-04T01:17:25.666Z,7.90
2017-09-04T01:19:52.699Z,7.90
2017-09-04T01:22:19.745Z,7.90
2017-09-04T01:24:46.749Z,7.90
2017-09-04T01:27:13.807Z,7.80
2017-09-04T01:29:40.834Z,7.70
2017-09-04T01:32:07.888Z,7.80
2017-09-04T01:34:34.902Z,7.70
2017-09-04T01:37:01.941Z,7.70
2017-09-04T01:39:28.974Z,7.70
2017-09-04T01:41:56.000Z,7.70
2017-09-04T01:44:23.050Z,7.70
2017-09-04T01:46:50.070Z,7.50
2017-09-04T01:49:17.083Z,7.60
2017-09-04T01:51:44.120Z,7.60
2017-09-04T01:54:11.139Z,7.50
2017-09-04T01:56:38.181Z,7.50
2017-09-04T01:59:05.235Z,7.50
2017-09-04T02:01:32.307Z,7.50
2017-09-04T02:04:00.083Z,7.40
2017-09-04T02:06:27.126Z,7.40
2017-09-04T02:08:54.150Z,7.50
2017-09-04T02:11:21.161Z,7.50
2017-09-04T02:13:48.202Z,7.40
2017-09-04T02:16:15.225Z,7.40
2017-09-04T02:18:42.273Z,7.40
2017-09-04T02:21:09.298Z,7.40
2017-09-04T02:23:36.315Z,7.30
2017-09-04T02:26:03.338Z,7.30
2017-09-04T02:28:30.359Z,7.30
2017-09-04T02:30:57.416Z,7.30
2017-09-04T02:33:24.422Z,7.20
2017-09-04T02:35:51.458Z,7.30
2017-09-04T02:38:18.520Z,7.30
2017-09-04T02:40:45.551Z,7.30
2017-09-04T02:43:12.567Z,7.20
2017-09-04T02:45:39.626Z,7.20
2017-09-04T02:48:06.647Z,7.10
2017-09-04T02:50:33.688Z,7.10
2017-09-04T02:53:00.724Z,7.10
2017-09-04T02:55:27.750Z,7.10
2017-09-04T02:57:54.791Z,7.10
2017-09-04T03:00:21.815Z,7.00
2017-09-04T03:02:48.858Z,7.00
2017-09-04T03:05:15.891Z,7.00
2017-09-04T03:07:42.898Z,6.90
2017-09-04T03:10:09.939Z,6.80
2017-09-04T03:12:36.951Z,6.90
2017-09-04T03:15:03.977Z,7.00
2017-09-04T03:17:31.022Z,7.00
2017-09-04T03:19:58.026Z,6.90
2017-09-04T03:22:25.038Z,6.90
2017-09-04T03:24:52.120Z,6.90
2017-09-04T03:27:19.133Z,6.90
2017-09-04T03:29:46.178Z,6.90
2017-09-04T03:32:13.235Z,6.90
2017-09-04T03:34:40.251Z,6.80
2017-09-04T03:37:07.299Z,6.60
2017-09-04T03:39:34.310Z,6.70
2017-09-04T03:42:01.376Z,6.70
2017-09-04T03:44:28.392Z,6.80
2017-09-04T03:46:55.416Z,6.70
2017-09-04T03:49:22.446Z,6.70
2017-09-04T03:51:49.488Z,6.60
2017-09-04T03:54:16.556Z,6.70
2017-09-04T03:56:43.552Z,6.50
2017-09-04T03:59:10.606Z,6.60
2017-09-04T04:01:37.650Z,6.50
2017-09-04T04:04:04.687Z,6.50
2017-09-04T04:06:31.703Z,6.50
2017-09-04T04:08:58.758Z,6.60
2017-09-04T04:11:25.776Z,6.60
2017-09-04T04:13:52.838Z,6.60
2017-09-04T04:16:19.847Z,6.60
2017-09-04T04:18:47.669Z,6.40
2017-09-04T04:21:14.711Z,6.40
2017-09-04T04:23:41.738Z,6.50
2017-09-04T04:26:08.810Z,6.50
2017-09-04T04:28:35.815Z,6.30
2017-09-04T04:31:02.870Z,6.40
2017-09-04T04:33:29.920Z,6.40
2017-09-04T04:35:56.939Z,6.40
2017-09-04T04:38:23.974Z,6.30
2017-09-04T04:40:50.978Z,6.30
2017-09-04T04:43:18.018Z,6.30
2017-09-04T04:45:45.031Z,6.30
2017-09-04T04:48:12.087Z,6.30
2017-09-04T04:50:39.891Z,6.60
2017-09-04T04:53:06.937Z,6.60
2017-09-04T04:55:33.979Z,6.60
2017-09-04T04:58:00.995Z,6.60
2017-09-04T05:00:28.804Z,6.60
2017-09-04T05:02:55.811Z,6.60
2017-09-04T05:05:22.891Z,6.70
2017-09-04T05:07:49.932Z,6.70
2017-09-04T05:10:16.966Z,6.80
2017-09-04T05:12:44.022Z,6.70
2017-09-04T05:15:11.041Z,6.80
2017-09-04T05:17:38.060Z,6.90
2017-09-04T05:20:05.122Z,6.80
2017-09-04T05:22:32.179Z,8.10
2017-09-04T05:24:59.230Z,8.40
2017-09-04T05:27:26.276Z,8.50
2017-09-04T05:29:53.319Z,8.70
2017-09-04T05:32:20.350Z,8.80
2017-09-04T05:34:47.379Z,8.80
2017-09-04T05:37:14.439Z,8.90
2017-09-04T05:39:41.454Z,9.00
2017-09-04T05:42:08.469Z,9.10
2017-09-04T05:44:35.537Z,9.10
2017-09-04T05:47:02.536Z,9.10
2017-09-04T05:49:29.578Z,9.40
2017-09-04T05:51:56.585Z,9.30
2017-09-04T05:54:23.613Z,9.30
2017-09-04T05:56:50.676Z,8.80
2017-09-04T05:59:17.682Z,9.20
2017-09-04T06:01:44.720Z,8.90
2017-09-04T06:04:11.758Z,9.10
2017-09-04T06:06:38.810Z,9.10
2017-09-04T06:09:05.829Z,9.20
2017-09-04T06:11:32.872Z,9.20
2017-09-04T06:13:59.910Z,9.70
2017-09-04T06:16:26.922Z,9.50
2017-09-04T06:18:53.961Z,9.70
2017-09-04T06:21:20.999Z,9.60
2017-09-04T06:23:48.019Z,9.00
2017-09-04T06:26:15.074Z,8.80
2017-09-04T06:28:42.103Z,8.80
2017-09-04T06:31:09.117Z,8.70
2017-09-04T06:33:36.159Z,8.50
2017-09-04T06:36:03.172Z,8.50
2017-09-04T06:38:30.218Z,8.70
2017-09-04T06:40:57.252Z,8.60
2017-09-04T06:43:24.247Z,8.50
2017-09-04T06:45:51.287Z,8.50
2017-09-04T06:48:18.346Z,8.60
2017-09-04T06:50:45.406Z,9.20
2017-09-04T06:53:12.418Z,9.70
2017-09-04T06:55:39.453Z,10.00
2017-09-04T06:58:06.515Z,9.80
2017-09-04T07:00:33.542Z,9.40
2017-09-04T07:03:00.565Z,9.00
2017-09-04T07:05:27.598Z,9.10
2017-09-04T07:07:54.659Z,9.20
2017-09-04T07:10:21.703Z,9.30
2017-09-04T07:12:49.490Z,9.30
2017-09-04T07:15:16.549Z,9.30
2017-09-04T07:17:43.637Z,9.70
2017-09-04T07:20:10.697Z,9.70
2017-09-04T07:22:37.735Z,9.80
2017-09-04T07:25:04.743Z,9.40
2017-09-04T07:27:31.789Z,9.90
2017-09-04T07:29:58.815Z,10.10
2017-09-04T07:32:25.838Z,10.40
2017-09-04T07:34:52.903Z,10.30
2017-09-04T07:37:19.927Z,10.70
2017-09-04T07:39:46.930Z,11.00
2017-09-04T07:42:13.983Z,11.30
2017-09-04T07:44:41.039Z,11.50
2017-09-04T07:47:08.120Z,11.50
2017-09-04T07:49:35.153Z,11.60
2017-09-04T07:52:02.211Z,11.80
2017-09-04T07:54:29.278Z,12.20
2017-09-04T07:56:56.347Z,12.20
2017-09-04T07:59:23.359Z,12.60
2017-09-04T08:01:50.383Z,12.70
2017-09-04T08:04:17.454Z,12.90
2017-09-04T08:06:44.471Z,13.00
2017-09-04T08:09:11.535Z,12.90
2017-09-04T08:38:54.433Z,21.90
2017-09-04T08:43:52.611Z,22.00
2017-09-04T08:54:56.786Z,20.40
2017-09-04T08:57:24.275Z,17.90
2017-09-04T08:59:51.743Z,16.50
2017-09-04T09:02:19.242Z,16.00
2017-09-04T09:04:46.723Z,15.40
2017-09-04T09:07:14.222Z,15.20
2017-09-04T09:09:41.736Z,15.00
2017-09-04T09:12:09.208Z,14.80
2017-09-04T09:14:36.680Z,15.10
2017-09-04T09:17:04.172Z,14.80
2017-09-04T09:19:31.631Z,14.50
2017-09-04T09:21:59.141Z,14.70
2017-09-04T09:24:26.640Z,15.20
2017-09-04T09:26:54.115Z,15.40
2017-09-04T09:29:21.611Z,15.50
2017-09-04T09:31:49.071Z,15.80
2017-09-04T09:34:16.595Z,15.80
2017-09-04T09:36:44.063Z,15.90
2017-09-04T09:39:11.531Z,16.10
2017-09-04T09:41:39.032Z,16.30
2017-09-04T09:44:06.541Z,16.10
2017-09-04T09:46:34.029Z,16.10
2017-09-04T09:49:01.503Z,16.10
2017-09-04T09:51:28.999Z,16.20
2017-09-04T09:53:56.474Z,16.20
2017-09-04T09:56:23.966Z,16.40
2017-09-04T09:58:51.430Z,16.40
2017-09-04T10:01:18.918Z,16.50
2017-09-04T10:03:46.391Z,16.60
2017-09-04T10:06:13.851Z,16.60
2017-09-04T10:08:41.351Z,16.50
2017-09-04T10:11:08.828Z,16.40
2017-09-04T10:13:36.322Z,16.30
2017-09-04T10:16:04.578Z,16.30
2017-09-04T10:18:32.057Z,16.30
2017-09-04T10:20:59.547Z,16.60
2017-09-04T10:23:27.054Z,16.50
2017-09-04T10:25:54.511Z,16.40
2017-09-04T10:28:22.004Z,17.10
2017-09-04T10:30:49.512Z,17.50
2017-09-04T10:33:16.988Z,17.40
2017-09-04T10:35:44.485Z,16.80
2017-09-04T10:38:11.978Z,16.50
2017-09-04T10:40:39.463Z,16.80
2017-09-04T10:43:06.935Z,17.00
2017-09-04T10:45:34.439Z,17.00
2017-09-04T10:48:01.931Z,16.80
2017-09-04T10:50:29.463Z,16.70
2017-09-04T10:52:57.031Z,16.90
2017-09-04T10:55:24.487Z,16.90
2017-09-04T10:57:51.981Z,16.90
2017-09-04T11:00:19.451Z,17.00
2017-09-04T11:02:46.935Z,16.90
2017-09-04T11:05:14.814Z,16.80
2017-09-04T11:07:42.290Z,17.00
2017-09-04T11:10:09.771Z,17.30
2017-09-04T11:12:37.238Z,17.20
2017-09-04T11:15:04.725Z,17.40
2017-09-04T11:17:32.206Z,17.40
2017-09-04T11:19:59.678Z,17.40
2017-09-04T11:22:27.197Z,17.40
2017-09-04T11:24:54.655Z,17.00
2017-09-04T11:27:22.191Z,17.40
2017-09-04T11:29:49.688Z,17.20
2017-09-04T11:32:17.151Z,17.40
2017-09-04T11:34:44.644Z,17.40
2017-09-04T11:37:12.099Z,17.40
2017-09-04T11:39:39.588Z,17.80
2017-09-04T11:42:07.083Z,18.30
2017-09-04T11:44:34.550Z,18.10
2017-09-04T11:47:02.050Z,17.90
2017-09-04T11:49:29.535Z,17.70
2017-09-04T11:51:57.014Z,18.00
2017-09-04T11:54:24.512Z,17.80
2017-09-04T11:56:51.971Z,17.80
2017-09-04T11:59:19.470Z,17.80
2017-09-04T12:01:46.930Z,17.90
2017-09-04T12:04:14.432Z,18.00
2017-09-04T12:06:41.910Z,18.00
2017-09-04T12:09:09.393Z,18.00
2017-09-04T12:11:36.871Z,18.00
2017-09-04T12:14:04.331Z,17.90
2017-09-04T12:16:31.822Z,17.80
2017-09-04T12:18:59.297Z,18.10
2017-09-04T12:21:26.779Z,18.30
2017-09-04T12:23:54.288Z,18.10
2017-09-04T12:26:23.028Z,17.80
2017-09-04T12:28:50.500Z,17.70
2017-09-04T12:31:18.790Z,18.30
2017-09-04T12:33:46.272Z,18.20
2017-09-04T12:36:13.770Z,18.20
2017-09-04T12:38:41.242Z,18.20
2017-09-04T12:41:08.707Z,18.40
2017-09-04T12:43:36.173Z,18.40
2017-09-04T12:46:03.687Z,18.40
2017-09-04T12:48:31.180Z,18.40
2017-09-04T12:50:58.682Z,18.40
2017-09-04T12:53:26.163Z,18.60
2017-09-04T12:55:53.632Z,18.40
2017-09-04T12:58:21.723Z,18.20
2017-09-04T13:00:49.208Z,18.20
2017-09-04T13:03:16.727Z,18.20
2017-09-04T13:05:44.195Z,18.10
2017-09-04T13:08:11.666Z,18.10
2017-09-04T13:10:39.787Z,18.10
2017-09-04T13:16:26.029Z,18.20
2017-09-04T13:18:59.232Z,18.10
2017-09-04T13:24:37.302Z,18.50
2017-09-04T13:27:10.457Z,18.40
2017-09-04T13:29:53.732Z,18.20
2017-09-04T13:32:26.882Z,18.30
2017-09-04T13:35:00.133Z,18.40
2017-09-04T13:37:36.319Z,18.30
2017-09-04T13:40:09.595Z,18.20
2017-09-04T13:42:41.056Z,18.00
2017-09-04T13:48:18.335Z,18.00
2017-09-04T13:50:51.432Z,18.10
2017-09-04T13:53:24.562Z,18.30
2017-09-04T13:55:52.041Z,18.40
2017-09-04T14:01:30.116Z,18.30
2017-09-04T14:04:03.368Z,18.20
2017-09-04T14:09:47.662Z,18.30
2017-09-04T14:12:20.791Z,18.30
2017-09-04T14:14:54.106Z,18.30
2017-09-04T14:17:27.363Z,18.30
2017-09-04T14:19:54.873Z,18.30
2017-09-04T14:22:22.379Z,18.10
2017-09-04T14:24:49.833Z,18.10
2017-09-04T14:27:17.315Z,18.40
2017-09-04T14:29:44.795Z,18.50
2017-09-04T14:32:12.305Z,18.40
2017-09-04T14:34:39.771Z,18.40
2017-09-04T14:37:07.253Z,18.80
2017-09-04T14:39:34.769Z,18.90
2017-09-04T14:42:02.260Z,18.90
2017-09-04T14:44:29.829Z,18.90
2017-09-04T14:47:03.215Z,18.70
2017-09-04T14:49:30.720Z,18.70
2017-09-04T14:51:58.993Z,18.90
2017-09-04T14:54:26.804Z,18.90
2017-09-04T14:56:54.305Z,18.80
2017-09-04T14:59:21.776Z,18.80
2017-09-04T15:01:49.271Z,19.00
2017-09-04T15:04:16.759Z,19.10
2017-09-04T15:06:44.246Z,18.80
2017-09-04T15:09:11.717Z,18.70
2017-09-04T15:11:39.216Z,18.90
2017-09-04T15:14:06.716Z,19.00
2017-09-04T15:16:34.188Z,19.20
2017-09-04T15:19:01.688Z,19.10
2017-09-04T15:21:29.143Z,19.00
2017-09-04T15:23:56.647Z,19.40
2017-09-04T15:26:24.110Z,19.60
2017-09-04T15:28:51.586Z,19.20
2017-09-04T15:31:19.103Z,18.60
2017-09-04T15:33:46.567Z,18.60
2017-09-04T15:36:14.095Z,18.60
2017-09-04T15:38:41.589Z,18.40
2017-09-04T15:41:09.085Z,18.30
2017-09-04T15:43:36.551Z,18.40
2017-09-04T15:46:04.017Z,18.20
2017-09-04T15:48:31.524Z,17.90
2017-09-04T15:50:59.040Z,17.80
2017-09-04T15:53:26.508Z,17.70
2017-09-04T15:55:54.007Z,17.60
2017-09-04T15:58:21.518Z,17.50
2017-09-04T16:00:48.996Z,17.70
2017-09-04T16:03:16.511Z,17.80
2017-09-04T16:08:49.778Z,17.90
2017-09-04T16:11:17.270Z,18.00
2017-09-04T16:13:46.277Z,17.90
2017-09-04T16:19:20.803Z,18.00
2017-09-04T16:34:43.286Z,17.50
2017-09-04T16:37:16.375Z,17.60
2017-09-04T16:39:45.822Z,17.50
2017-09-04T16:42:14.813Z,17.50
2017-09-04T16:44:42.331Z,17.50
2017-09-04T16:47:11.608Z,17.40
2017-09-04T16:49:41.715Z,17.30
2017-09-04T16:52:11.679Z,17.20
2017-09-04T16:54:39.963Z,17.10
2017-09-04T16:57:10.297Z,17.10
2017-09-04T16:59:37.808Z,16.90
2017-09-04T17:02:05.311Z,16.60
2017-09-04T17:04:32.790Z,16.50
2017-09-04T17:07:00.291Z,16.50
2017-09-04T17:09:29.908Z,16.30
2017-09-04T17:12:00.323Z,16.30
2017-09-04T17:14:27.795Z,16.10
2017-09-04T17:16:55.929Z,16.00
2017-09-04T17:19:27.854Z,15.90
2017-09-04T17:21:56.838Z,15.90
2017-09-04T17:24:24.334Z,15.80
2017-09-04T17:26:51.823Z,15.60
2017-09-04T17:29:19.303Z,15.50
2017-09-04T17:31:46.794Z,15.50
2017-09-04T17:34:14.263Z,15.40
2017-09-04T17:36:41.749Z,15.20
2017-09-04T17:39:09.223Z,15.10
2017-09-04T17:41:36.728Z,15.00
2017-09-04T17:44:04.191Z,15.00
2017-09-04T17:46:31.686Z,14.90
2017-09-04T17:48:59.202Z,14.90
2017-09-04T17:51:26.671Z,14.80
2017-09-04T17:53:54.167Z,14.60
2017-09-04T17:56:21.658Z,14.70
2017-09-04T17:58:49.174Z,14.60
2017-09-04T18:01:16.679Z,14.70
2017-09-04T18:03:44.139Z,14.70
2017-09-04T18:06:11.671Z,14.50
2017-09-04T18:08:39.140Z,14.40
2017-09-04T18:11:06.613Z,14.40
2017-09-04T18:13:34.115Z,14.40
2017-09-04T18:16:01.658Z,14.40
2017-09-04T18:18:29.151Z,14.50
2017-09-04T18:20:56.638Z,14.30
2017-09-04T18:23:24.110Z,14.20
2017-09-04T18:25:51.593Z,14.20
2017-09-04T18:28:19.067Z,14.10
2017-09-04T18:30:46.561Z,14.20
2017-09-04T18:33:14.084Z,14.30
2017-09-04T18:35:41.547Z,14.30
2017-09-04T18:38:09.029Z,14.10
2017-09-04T18:40:36.515Z,14.30
2017-09-04T18:43:04.030Z,14.30
2017-09-04T18:45:31.522Z,13.90
2017-09-04T18:47:58.982Z,13.60
2017-09-04T18:50:26.533Z,13.70
2017-09-04T18:52:54.650Z,13.80
2017-09-04T18:55:22.104Z,13.90
2017-09-04T18:57:49.586Z,14.00
2017-09-04T19:00:17.062Z,14.00
2017-09-04T19:02:44.559Z,13.70
2017-09-04T19:05:12.019Z,13.60
2017-09-04T19:07:39.526Z,13.40
2017-09-04T19:10:06.987Z,13.60
2017-09-04T19:12:34.451Z,13.70
2017-09-04T19:15:01.941Z,13.90
2017-09-04T19:17:29.404Z,13.80
2017-09-04T19:19:56.935Z,13.80
2017-09-04T19:22:24.406Z,13.80
2017-09-04T19:24:51.913Z,13.60
2017-09-04T19:27:19.398Z,13.50
2017-09-04T19:29:46.946Z,13.60
2017-09-04T19:32:14.411Z,13.30
2017-09-04T19:34:41.891Z,13.10
2017-09-04T19:37:09.380Z,13.10
2017-09-04T19:39:36.843Z,12.90
2017-09-04T19:42:04.315Z,12.80
2017-09-04T19:44:31.802Z,12.70
2017-09-04T19:46:59.280Z,12.70
2017-09-04T19:49:26.749Z,12.60
2017-09-04T19:51:54.258Z,12.80
2017-09-04T19:54:21.740Z,12.80
2017-09-04T19:56:49.267Z,12.80
2017-09-04T19:59:16.771Z,12.80
2017-09-04T20:01:44.224Z,12.80
2017-09-04T20:04:11.739Z,13.00
2017-09-04T20:06:39.217Z,12.80
2017-09-04T20:09:06.720Z,12.70
2017-09-04T20:11:34.229Z,12.90
2017-09-04T20:14:02.149Z,12.80
2017-09-04T20:16:30.407Z,12.90
2017-09-04T20:18:57.972Z,12.90
2017-09-04T20:21:25.430Z,13.00
2017-09-04T20:23:52.909Z,12.80
2017-09-04T20:26:20.411Z,12.90
2017-09-04T20:28:47.918Z,12.90
2017-09-04T20:31:15.390Z,12.90
2017-09-04T20:33:42.856Z,12.80
2017-09-04T20:36:10.359Z,12.80
2017-09-04T20:38:37.845Z,12.80
2017-09-04T20:41:05.310Z,12.80
2017-09-04T20:43:32.815Z,12.90
2017-09-04T20:46:00.309Z,12.90
2017-09-04T20:48:27.804Z,12.90
2017-09-04T20:50:55.270Z,13.00
2017-09-04T20:53:22.810Z,12.90
2017-09-04T20:55:50.269Z,12.90
2017-09-04T20:58:17.747Z,12.70
2017-09-04T21:00:45.243Z,12.50
2017-09-04T21:03:12.719Z,12.60
2017-09-04T21:05:40.238Z,12.70
2017-09-04T21:08:07.713Z,12.80
2017-09-04T21:10:35.427Z,12.80
2017-09-04T21:13:02.951Z,12.80
2017-09-04T21:15:30.432Z,12.90
2017-09-04T21:17:57.899Z,12.90
2017-09-04T21:20:25.410Z,12.90
2017-09-04T21:22:52.897Z,13.00
2017-09-04T21:25:20.386Z,13.00
2017-09-04T21:27:47.882Z,13.00
2017-09-04T21:30:15.424Z,13.00
2017-09-04T21:32:42.940Z,12.80
2017-09-04T21:35:10.442Z,12.70
2017-09-04T21:37:37.918Z,12.70
2017-09-04T21:40:05.439Z,12.60
2017-09-04T21:42:32.915Z,12.60
2017-09-04T21:45:00.405Z,12.60
2017-09-04T21:47:27.901Z,12.60
2017-09-04T21:49:55.391Z,12.70
2017-09-04T21:52:22.917Z,12.80
2017-09-04T21:54:50.378Z,12.80
2017-09-04T21:57:17.855Z,12.90
2017-09-04T21:59:45.335Z,12.90
2017-09-04T22:02:12.811Z,12.90
2017-09-04T22:04:40.323Z,12.90
2017-09-04T22:07:07.778Z,12.90
2017-09-04T22:09:35.240Z,12.90
2017-09-04T22:12:02.743Z,12.80
2017-09-04T22:14:30.231Z,12.70
2017-09-04T22:16:57.704Z,12.60
2017-09-04T22:19:25.210Z,12.70
2017-09-04T22:21:52.671Z,12.80
2017-09-04T22:24:20.149Z,12.80
2017-09-04T22:26:47.612Z,12.80
2017-09-04T22:29:15.075Z,12.70
2017-09-04T22:31:42.569Z,12.70
2017-09-04T22:34:10.034Z,12.60
2017-09-04T22:36:37.551Z,12.60
2017-09-04T22:39:05.015Z,12.60
2017-09-04T22:41:32.501Z,12.70
2017-09-04T22:43:59.991Z,12.80
2017-09-04T22:46:27.455Z,12.90
2017-09-04T22:48:54.952Z,12.80
2017-09-04T22:51:22.438Z,12.80
2017-09-04T22:53:49.931Z,12.90
2017-09-04T22:56:18.164Z,12.90
2017-09-04T22:58:55.579Z,12.90
2017-09-04T23:01:23.060Z,12.90
2017-09-04T23:03:50.520Z,12.60
2017-09-04T23:06:18.029Z,12.80
2017-09-04T23:08:45.486Z,12.80
2017-09-04T23:11:12.999Z,12.80
2017-09-04T23:13:40.483Z,12.50
2017-09-04T23:16:07.962Z,12.50
2017-09-04T23:18:35.460Z,12.60
2017-09-04T23:21:02.939Z,12.60
2017-09-04T23:23:30.401Z,12.60
2017-09-04T23:25:58.666Z,12.60
2017-09-04T23:28:26.127Z,12.60
2017-09-04T23:30:53.672Z,12.50
2017-09-04T23:33:21.143Z,12.40
2017-09-04T23:35:48.639Z,12.50
2017-09-04T23:38:16.173Z,12.40
2017-09-04T23:40:43.618Z,12.50
2017-09-04T23:43:11.096Z,12.60
2017-09-04T23:45:38.584Z,12.70
2017-09-04T23:48:06.104Z,12.60
2017-09-04T23:50:34.342Z,12.40
2017-09-04T23:53:01.818Z,12.40
2017-09-04T23:55:29.327Z,12.50
2017-09-04T23:57:56.805Z,12.60
